sensor_id;sensor_type;location;lat;lon;timestamp;P1;durP1;ratioP1;P2;durP2;ratioP2
22871;SDS011;11603;44.910;8.630;2023-04-12T00:28:38;7.40;;;5.07;;
22871;SDS011;11603;44.910;8.630;2023-04-12T00:46:53;7.57;;;4.97;;
22871;SDS011;11603;44.910;8.630;2023-04-12T00:50:46;11.07;;;5.68;;
22871;SDS011;11603;44.910;8.630;2023-04-12T02:27:51;9.63;;;7.55;;
22871;SDS011;11603;44.910;8.630;2023-04-12T02:41:21;11.45;;;7.82;;
22871;SDS011;11603;44.910;8.630;2023-04-12T02:48:17;10.02;;;7.38;;
22871;SDS011;11603;44.910;8.630;2023-04-12T02:58:28;12.85;;;7.35;;
22871;SDS011;11603;44.910;8.630;2023-04-12T03:01:10;15.98;;;8.00;;
22871;SDS011;11603;44.910;8.630;2023-04-12T03:18:36;8.95;;;7.72;;
22871;SDS011;11603;44.910;8.630;2023-04-12T03:28:42;13.43;;;7.68;;
22871;SDS011;11603;44.910;8.630;2023-04-12T03:31:27;12.70;;;7.90;;
22871;SDS011;11603;44.910;8.630;2023-04-12T04:02:52;15.82;;;9.68;;
22871;SDS011;11603;44.910;8.630;2023-04-12T04:05:20;16.75;;;9.70;;
22871;SDS011;11603;44.910;8.630;2023-04-12T04:11:52;14.63;;;8.18;;
22871;SDS011;11603;44.910;8.630;2023-04-12T04:14:28;13.07;;;9.13;;
22871;SDS011;11603;44.910;8.630;2023-04-12T04:45:14;25.52;;;11.60;;
22871;SDS011;11603;44.910;8.630;2023-04-12T04:51:44;21.58;;;9.98;;
22871;SDS011;11603;44.910;8.630;2023-04-12T04:54:22;16.60;;;9.20;;
22871;SDS011;11603;44.910;8.630;2023-04-12T04:57:52;20.50;;;9.27;;
22871;SDS011;11603;44.910;8.630;2023-04-12T05:03:49;22.73;;;12.13;;
22871;SDS011;11603;44.910;8.630;2023-04-12T05:10:53;24.20;;;8.35;;
22871;SDS011;11603;44.910;8.630;2023-04-12T05:49:56;23.00;;;10.60;;
22871;SDS011;11603;44.910;8.630;2023-04-12T05:55:37;16.45;;;11.20;;
22871;SDS011;11603;44.910;8.630;2023-04-12T05:58:04;23.73;;;11.95;;
22871;SDS011;11603;44.910;8.630;2023-04-12T06:00:35;17.13;;;12.05;;
22871;SDS011;11603;44.910;8.630;2023-04-12T06:06:19;23.90;;;13.23;;
22871;SDS011;11603;44.910;8.630;2023-04-12T06:08:46;21.02;;;14.35;;
22871;SDS011;11603;44.910;8.630;2023-04-12T06:14:24;20.38;;;15.23;;
22871;SDS011;11603;44.910;8.630;2023-04-12T06:16:49;24.67;;;15.88;;
22871;SDS011;11603;44.910;8.630;2023-04-12T06:19:17;19.08;;;15.32;;
22871;SDS011;11603;44.910;8.630;2023-04-12T06:21:43;21.58;;;16.25;;
22871;SDS011;11603;44.910;8.630;2023-04-12T06:24:21;22.95;;;15.80;;
22871;SDS011;11603;44.910;8.630;2023-04-12T06:26:57;22.50;;;15.73;;
22871;SDS011;11603;44.910;8.630;2023-04-12T06:29:23;21.85;;;16.27;;
22871;SDS011;11603;44.910;8.630;2023-04-12T06:35:37;29.48;;;17.42;;
22871;SDS011;11603;44.910;8.630;2023-04-12T06:38:03;21.05;;;16.45;;
22871;SDS011;11603;44.910;8.630;2023-04-12T06:40:31;22.80;;;17.80;;
22871;SDS011;11603;44.910;8.630;2023-04-12T06:58:46;21.83;;;19.02;;
22871;SDS011;11603;44.910;8.630;2023-04-12T07:01:38;23.33;;;18.27;;
22871;SDS011;11603;44.910;8.630;2023-04-12T07:04:03;22.13;;;18.73;;
22871;SDS011;11603;44.910;8.630;2023-04-12T07:07:06;25.23;;;18.98;;
22871;SDS011;11603;44.910;8.630;2023-04-12T07:09:32;25.30;;;19.27;;
22871;SDS011;11603;44.910;8.630;2023-04-12T07:12:19;22.25;;;18.45;;
22871;SDS011;11603;44.910;8.630;2023-04-12T07:14:55;27.48;;;20.35;;
22871;SDS011;11603;44.910;8.630;2023-04-12T07:20:53;24.08;;;18.80;;
22871;SDS011;11603;44.910;8.630;2023-04-12T07:23:43;23.98;;;19.23;;
22871;SDS011;11603;44.910;8.630;2023-04-12T07:26:11;24.67;;;19.08;;
22871;SDS011;11603;44.910;8.630;2023-04-12T07:28:37;23.77;;;19.55;;
22871;SDS011;11603;44.910;8.630;2023-04-12T07:31:08;23.17;;;19.58;;
22871;SDS011;11603;44.910;8.630;2023-04-12T07:33:36;26.33;;;20.33;;
22871;SDS011;11603;44.910;8.630;2023-04-12T07:36:11;26.83;;;20.48;;
22871;SDS011;11603;44.910;8.630;2023-04-12T07:41:26;28.48;;;21.20;;
22871;SDS011;11603;44.910;8.630;2023-04-12T07:43:54;29.13;;;22.00;;
22871;SDS011;11603;44.910;8.630;2023-04-12T07:46:26;26.40;;;21.65;;
22871;SDS011;11603;44.910;8.630;2023-04-12T07:49:10;24.15;;;20.95;;
22871;SDS011;11603;44.910;8.630;2023-04-12T07:54:33;26.25;;;20.60;;
22871;SDS011;11603;44.910;8.630;2023-04-12T07:57:09;24.83;;;19.95;;
22871;SDS011;11603;44.910;8.630;2023-04-12T07:59:35;27.52;;;20.40;;
22871;SDS011;11603;44.910;8.630;2023-04-12T08:02:16;21.67;;;18.75;;
22871;SDS011;11603;44.910;8.630;2023-04-12T08:04:57;30.08;;;21.30;;
22871;SDS011;11603;44.910;8.630;2023-04-12T08:07:25;26.67;;;18.65;;
22871;SDS011;11603;44.910;8.630;2023-04-12T08:09:53;25.67;;;19.35;;
22871;SDS011;11603;44.910;8.630;2023-04-12T08:12:19;26.25;;;19.70;;
22871;SDS011;11603;44.910;8.630;2023-04-12T08:14:45;22.65;;;19.83;;
22871;SDS011;11603;44.910;8.630;2023-04-12T08:27:48;22.90;;;19.30;;
22871;SDS011;11603;44.910;8.630;2023-04-12T08:32:57;23.13;;;18.35;;
22871;SDS011;11603;44.910;8.630;2023-04-12T08:35:28;24.95;;;19.05;;
22871;SDS011;11603;44.910;8.630;2023-04-12T08:48:10;23.73;;;19.20;;
22871;SDS011;11603;44.910;8.630;2023-04-12T08:50:36;23.67;;;19.17;;
22871;SDS011;11603;44.910;8.630;2023-04-12T08:59:04;26.17;;;19.80;;
22871;SDS011;11603;44.910;8.630;2023-04-12T09:08:19;25.55;;;20.50;;
22871;SDS011;11603;44.910;8.630;2023-04-12T09:17:36;20.92;;;18.08;;
22871;SDS011;11603;44.910;8.630;2023-04-12T09:28:41;22.50;;;18.47;;
22871;SDS011;11603;44.910;8.630;2023-04-12T09:31:14;24.27;;;18.38;;
22871;SDS011;11603;44.910;8.630;2023-04-12T09:33:41;25.23;;;19.20;;
22871;SDS011;11603;44.910;8.630;2023-04-12T09:36:20;26.48;;;18.88;;
22871;SDS011;11603;44.910;8.630;2023-04-12T09:39:02;34.90;;;19.67;;
22871;SDS011;11603;44.910;8.630;2023-04-12T09:41:29;30.25;;;19.42;;
22871;SDS011;11603;44.910;8.630;2023-04-12T09:44:01;22.42;;;19.05;;
22871;SDS011;11603;44.910;8.630;2023-04-12T09:46:28;22.02;;;19.40;;
22871;SDS011;11603;44.910;8.630;2023-04-12T09:48:54;24.13;;;20.13;;
22871;SDS011;11603;44.910;8.630;2023-04-12T09:51:26;23.15;;;19.77;;
22871;SDS011;11603;44.910;8.630;2023-04-12T09:53:54;22.63;;;19.52;;
22871;SDS011;11603;44.910;8.630;2023-04-12T09:56:27;22.35;;;19.48;;
22871;SDS011;11603;44.910;8.630;2023-04-12T09:59:03;25.33;;;20.45;;
22871;SDS011;11603;44.910;8.630;2023-04-12T10:01:38;26.88;;;21.80;;
22871;SDS011;11603;44.910;8.630;2023-04-12T10:04:06;27.73;;;20.83;;
22871;SDS011;11603;44.910;8.630;2023-04-12T10:06:40;23.65;;;19.85;;
22871;SDS011;11603;44.910;8.630;2023-04-12T10:09:09;25.98;;;20.73;;
22871;SDS011;11603;44.910;8.630;2023-04-12T10:11:37;25.73;;;20.17;;
22871;SDS011;11603;44.910;8.630;2023-04-12T10:14:05;24.90;;;19.80;;
22871;SDS011;11603;44.910;8.630;2023-04-12T10:16:33;23.33;;;19.75;;
22871;SDS011;11603;44.910;8.630;2023-04-12T10:19:01;23.67;;;20.13;;
22871;SDS011;11603;44.910;8.630;2023-04-12T10:21:28;24.98;;;21.10;;
22871;SDS011;11603;44.910;8.630;2023-04-12T10:23:54;27.52;;;19.73;;
22871;SDS011;11603;44.910;8.630;2023-04-12T10:26:27;26.63;;;20.20;;
22871;SDS011;11603;44.910;8.630;2023-04-12T10:32:31;24.90;;;19.42;;
22871;SDS011;11603;44.910;8.630;2023-04-12T10:34:57;24.38;;;19.27;;
22871;SDS011;11603;44.910;8.630;2023-04-12T10:44:56;23.33;;;19.10;;
22871;SDS011;11603;44.910;8.630;2023-04-12T10:50:31;25.58;;;18.65;;
22871;SDS011;11603;44.910;8.630;2023-04-12T10:55:42;28.33;;;19.05;;
22871;SDS011;11603;44.910;8.630;2023-04-12T10:58:53;20.83;;;18.60;;
22871;SDS011;11603;44.910;8.630;2023-04-12T11:01:16;22.50;;;16.77;;
22871;SDS011;11603;44.910;8.630;2023-04-12T11:07:21;21.52;;;17.65;;
22871;SDS011;11603;44.910;8.630;2023-04-12T11:09:50;21.05;;;16.42;;
22871;SDS011;11603;44.910;8.630;2023-04-12T11:12:38;19.55;;;17.23;;
22871;SDS011;11603;44.910;8.630;2023-04-12T11:15:14;26.52;;;18.70;;
22871;SDS011;11603;44.910;8.630;2023-04-12T11:17:54;18.95;;;16.10;;
22871;SDS011;11603;44.910;8.630;2023-04-12T11:20:21;25.48;;;16.65;;
22871;SDS011;11603;44.910;8.630;2023-04-12T11:22:46;22.23;;;16.38;;
22871;SDS011;11603;44.910;8.630;2023-04-12T11:25:23;25.92;;;16.10;;
22871;SDS011;11603;44.910;8.630;2023-04-12T11:27:50;22.42;;;15.95;;
22871;SDS011;11603;44.910;8.630;2023-04-12T11:30:18;26.10;;;16.35;;
22871;SDS011;11603;44.910;8.630;2023-04-12T11:32:47;25.05;;;16.05;;
22871;SDS011;11603;44.910;8.630;2023-04-12T11:35:13;23.73;;;16.90;;
22871;SDS011;11603;44.910;8.630;2023-04-12T11:37:40;21.90;;;15.98;;
22871;SDS011;11603;44.910;8.630;2023-04-12T11:40:13;21.08;;;17.17;;
22871;SDS011;11603;44.910;8.630;2023-04-12T11:42:38;23.98;;;17.95;;
22871;SDS011;11603;44.910;8.630;2023-04-12T11:45:05;26.77;;;17.08;;
22871;SDS011;11603;44.910;8.630;2023-04-12T11:48:06;19.98;;;16.45;;
22871;SDS011;11603;44.910;8.630;2023-04-12T11:50:41;20.50;;;17.65;;
22871;SDS011;11603;44.910;8.630;2023-04-12T11:53:12;20.83;;;17.80;;
22871;SDS011;11603;44.910;8.630;2023-04-12T11:55:38;22.02;;;16.83;;
22871;SDS011;11603;44.910;8.630;2023-04-12T11:58:11;24.60;;;16.95;;
22871;SDS011;11603;44.910;8.630;2023-04-12T12:00:37;25.40;;;16.58;;
22871;SDS011;11603;44.910;8.630;2023-04-12T12:03:08;24.50;;;16.10;;
22871;SDS011;11603;44.910;8.630;2023-04-12T12:05:38;19.23;;;15.77;;
22871;SDS011;11603;44.910;8.630;2023-04-12T12:08:05;21.67;;;16.25;;
22871;SDS011;11603;44.910;8.630;2023-04-12T12:10:37;20.25;;;15.77;;
22871;SDS011;11603;44.910;8.630;2023-04-12T12:13:10;19.10;;;16.05;;
22871;SDS011;11603;44.910;8.630;2023-04-12T12:19:15;23.48;;;15.55;;
22871;SDS011;11603;44.910;8.630;2023-04-12T12:21:49;26.30;;;17.20;;
22871;SDS011;11603;44.910;8.630;2023-04-12T12:24:16;19.05;;;15.07;;
22871;SDS011;11603;44.910;8.630;2023-04-12T12:26:41;23.40;;;15.10;;
22871;SDS011;11603;44.910;8.630;2023-04-12T12:29:15;23.25;;;15.75;;
22871;SDS011;11603;44.910;8.630;2023-04-12T12:31:45;20.75;;;15.70;;
22871;SDS011;11603;44.910;8.630;2023-04-12T12:34:13;23.38;;;15.57;;
22871;SDS011;11603;44.910;8.630;2023-04-12T12:43:18;22.08;;;15.77;;
22871;SDS011;11603;44.910;8.630;2023-04-12T12:45:46;21.00;;;14.10;;
22871;SDS011;11603;44.910;8.630;2023-04-12T12:48:12;20.08;;;14.50;;
22871;SDS011;11603;44.910;8.630;2023-04-12T12:50:38;19.83;;;13.90;;
22871;SDS011;11603;44.910;8.630;2023-04-12T12:53:04;21.52;;;14.82;;
22871;SDS011;11603;44.910;8.630;2023-04-12T12:55:30;19.10;;;14.05;;
22871;SDS011;11603;44.910;8.630;2023-04-12T13:00:46;20.48;;;14.35;;
22871;SDS011;11603;44.910;8.630;2023-04-12T13:03:12;19.40;;;13.77;;
22871;SDS011;11603;44.910;8.630;2023-04-12T13:05:37;23.00;;;14.07;;
22871;SDS011;11603;44.910;8.630;2023-04-12T13:08:05;18.00;;;13.30;;
22871;SDS011;11603;44.910;8.630;2023-04-12T13:10:30;20.23;;;12.90;;
22871;SDS011;11603;44.910;8.630;2023-04-12T13:12:56;16.95;;;14.07;;
22871;SDS011;11603;44.910;8.630;2023-04-12T13:15:24;22.02;;;14.80;;
22871;SDS011;11603;44.910;8.630;2023-04-12T13:17:53;17.63;;;14.07;;
22871;SDS011;11603;44.910;8.630;2023-04-12T13:20:18;21.92;;;15.20;;
22871;SDS011;11603;44.910;8.630;2023-04-12T13:22:44;22.95;;;16.00;;
22871;SDS011;11603;44.910;8.630;2023-04-12T13:25:12;20.83;;;15.43;;
22871;SDS011;11603;44.910;8.630;2023-04-12T13:27:38;22.65;;;16.08;;
22871;SDS011;11603;44.910;8.630;2023-04-12T13:30:12;25.75;;;15.68;;
22871;SDS011;11603;44.910;8.630;2023-04-12T13:32:38;21.17;;;14.98;;
22871;SDS011;11603;44.910;8.630;2023-04-12T13:35:03;23.48;;;15.15;;
22871;SDS011;11603;44.910;8.630;2023-04-12T13:37:39;21.83;;;15.65;;
22871;SDS011;11603;44.910;8.630;2023-04-12T13:40:04;22.05;;;15.55;;
22871;SDS011;11603;44.910;8.630;2023-04-12T13:42:30;19.00;;;15.27;;
22871;SDS011;11603;44.910;8.630;2023-04-12T13:44:56;21.52;;;15.13;;
22871;SDS011;11603;44.910;8.630;2023-04-12T13:47:25;21.02;;;14.98;;
22871;SDS011;11603;44.910;8.630;2023-04-12T13:49:54;20.65;;;14.45;;
22871;SDS011;11603;44.910;8.630;2023-04-12T13:52:19;22.38;;;15.02;;
22871;SDS011;11603;44.910;8.630;2023-04-12T13:54:55;20.80;;;14.57;;
22871;SDS011;11603;44.910;8.630;2023-04-12T13:57:21;18.63;;;14.02;;
22871;SDS011;11603;44.910;8.630;2023-04-12T13:59:47;23.02;;;15.43;;
22871;SDS011;11603;44.910;8.630;2023-04-12T14:02:15;18.75;;;15.35;;
22871;SDS011;11603;44.910;8.630;2023-04-12T14:04:50;20.85;;;15.20;;
22871;SDS011;11603;44.910;8.630;2023-04-12T14:07:19;14.95;;;10.55;;
22871;SDS011;11603;44.910;8.630;2023-04-12T14:09:45;16.27;;;12.65;;
22871;SDS011;11603;44.910;8.630;2023-04-12T14:12:12;19.33;;;12.48;;
22871;SDS011;11603;44.910;8.630;2023-04-12T14:14:38;22.73;;;13.55;;
22871;SDS011;11603;44.910;8.630;2023-04-12T14:17:04;17.40;;;11.98;;
22871;SDS011;11603;44.910;8.630;2023-04-12T14:19:30;13.27;;;11.35;;
22871;SDS011;11603;44.910;8.630;2023-04-12T14:21:55;13.98;;;11.55;;
22871;SDS011;11603;44.910;8.630;2023-04-12T14:24:21;16.95;;;12.48;;
22871;SDS011;11603;44.910;8.630;2023-04-12T14:26:47;18.65;;;12.57;;
22871;SDS011;11603;44.910;8.630;2023-04-12T14:29:15;18.80;;;11.90;;
22871;SDS011;11603;44.910;8.630;2023-04-12T14:31:41;14.32;;;11.73;;
22871;SDS011;11603;44.910;8.630;2023-04-12T14:34:07;15.25;;;11.70;;
22871;SDS011;11603;44.910;8.630;2023-04-12T14:36:32;17.63;;;11.40;;
22871;SDS011;11603;44.910;8.630;2023-04-12T14:38:59;21.38;;;11.73;;
22871;SDS011;11603;44.910;8.630;2023-04-12T14:41:29;13.05;;;11.48;;
22871;SDS011;11603;44.910;8.630;2023-04-12T14:43:55;19.25;;;11.32;;
22871;SDS011;11603;44.910;8.630;2023-04-12T14:46:22;17.58;;;11.32;;
22871;SDS011;11603;44.910;8.630;2023-04-12T14:48:49;12.93;;;9.60;;
22871;SDS011;11603;44.910;8.630;2023-04-12T14:51:16;16.65;;;10.23;;
22871;SDS011;11603;44.910;8.630;2023-04-12T14:53:44;17.60;;;10.57;;
22871;SDS011;11603;44.910;8.630;2023-04-12T14:56:23;15.95;;;9.65;;
22871;SDS011;11603;44.910;8.630;2023-04-12T14:58:50;13.02;;;9.63;;
22871;SDS011;11603;44.910;8.630;2023-04-12T15:01:23;18.77;;;10.13;;
22871;SDS011;11603;44.910;8.630;2023-04-12T15:03:49;13.90;;;10.05;;
22871;SDS011;11603;44.910;8.630;2023-04-12T15:06:17;14.73;;;10.38;;
22871;SDS011;11603;44.910;8.630;2023-04-12T15:09:07;11.15;;;8.82;;
22871;SDS011;11603;44.910;8.630;2023-04-12T15:11:42;20.20;;;13.63;;
22871;SDS011;11603;44.910;8.630;2023-04-12T15:15:15;16.95;;;10.82;;
22871;SDS011;11603;44.910;8.630;2023-04-12T15:20:37;14.25;;;8.95;;
22871;SDS011;11603;44.910;8.630;2023-04-12T15:23:03;18.30;;;9.60;;
22871;SDS011;11603;44.910;8.630;2023-04-12T15:25:37;13.20;;;9.55;;
22871;SDS011;11603;44.910;8.630;2023-04-12T15:28:03;13.65;;;7.75;;
22871;SDS011;11603;44.910;8.630;2023-04-12T15:30:28;13.75;;;7.40;;
22871;SDS011;11603;44.910;8.630;2023-04-12T15:32:58;13.32;;;7.55;;
22871;SDS011;11603;44.910;8.630;2023-04-12T15:35:24;10.75;;;5.78;;
22871;SDS011;11603;44.910;8.630;2023-04-12T15:37:55;13.90;;;5.07;;
22871;SDS011;11603;44.910;8.630;2023-04-12T15:40:24;13.80;;;4.50;;
22871;SDS011;11603;44.910;8.630;2023-04-12T15:42:49;9.10;;;3.20;;
22871;SDS011;11603;44.910;8.630;2023-04-12T15:45:18;10.38;;;3.85;;
22871;SDS011;11603;44.910;8.630;2023-04-12T15:51:12;7.60;;;3.35;;
22871;SDS011;11603;44.910;8.630;2023-04-12T15:53:46;14.85;;;3.60;;
22871;SDS011;11603;44.910;8.630;2023-04-12T16:19:14;5.85;;;2.95;;
22871;SDS011;11603;44.910;8.630;2023-04-12T16:31:33;7.55;;;3.15;;
22871;SDS011;11603;44.910;8.630;2023-04-12T16:34:19;7.40;;;2.75;;
22871;SDS011;11603;44.910;8.630;2023-04-12T16:44:37;7.40;;;3.20;;
22871;SDS011;11603;44.910;8.630;2023-04-12T16:54:44;9.85;;;2.65;;
22871;SDS011;11603;44.910;8.630;2023-04-12T16:59:47;6.88;;;2.90;;
22871;SDS011;11603;44.910;8.630;2023-04-12T17:05:43;8.10;;;3.63;;
22871;SDS011;11603;44.910;8.630;2023-04-12T17:08:14;10.95;;;3.38;;
22871;SDS011;11603;44.910;8.630;2023-04-12T17:10:49;6.65;;;3.40;;
22871;SDS011;11603;44.910;8.630;2023-04-12T17:16:17;5.65;;;3.40;;
22871;SDS011;11603;44.910;8.630;2023-04-12T17:30:56;13.18;;;4.90;;
22871;SDS011;11603;44.910;8.630;2023-04-12T17:40:30;16.10;;;6.22;;
22871;SDS011;11603;44.910;8.630;2023-04-12T17:52:38;12.23;;;5.05;;
22871;SDS011;11603;44.910;8.630;2023-04-12T17:55:07;12.88;;;4.97;;
22871;SDS011;11603;44.910;8.630;2023-04-12T17:57:41;9.02;;;4.70;;
22871;SDS011;11603;44.910;8.630;2023-04-12T18:00:15;8.05;;;5.10;;
22871;SDS011;11603;44.910;8.630;2023-04-12T18:03:11;8.05;;;4.60;;
22871;SDS011;11603;44.910;8.630;2023-04-12T18:09:23;9.15;;;5.30;;
22871;SDS011;11603;44.910;8.630;2023-04-12T18:11:52;8.93;;;5.07;;
22871;SDS011;11603;44.910;8.630;2023-04-12T18:14:26;8.68;;;5.13;;
22871;SDS011;11603;44.910;8.630;2023-04-12T18:16:52;10.65;;;5.18;;
22871;SDS011;11603;44.910;8.630;2023-04-12T18:22:46;9.15;;;5.30;;
22871;SDS011;11603;44.910;8.630;2023-04-12T18:25:12;10.13;;;5.43;;
22871;SDS011;11603;44.910;8.630;2023-04-12T18:27:38;10.65;;;4.93;;
22871;SDS011;11603;44.910;8.630;2023-04-12T18:30:13;9.90;;;5.25;;
22871;SDS011;11603;44.910;8.630;2023-04-12T18:32:39;11.52;;;5.60;;
22871;SDS011;11603;44.910;8.630;2023-04-12T18:38:05;12.85;;;5.82;;
22871;SDS011;11603;44.910;8.630;2023-04-12T18:40:38;12.55;;;6.53;;
22871;SDS011;11603;44.910;8.630;2023-04-12T18:43:04;13.52;;;5.78;;
22871;SDS011;11603;44.910;8.630;2023-04-12T18:45:39;14.77;;;6.13;;
22871;SDS011;11603;44.910;8.630;2023-04-12T18:48:23;13.77;;;5.25;;
22871;SDS011;11603;44.910;8.630;2023-04-12T18:51:00;9.80;;;5.00;;
22871;SDS011;11603;44.910;8.630;2023-04-12T18:53:25;12.57;;;5.97;;
22871;SDS011;11603;44.910;8.630;2023-04-12T18:56:00;13.25;;;6.40;;
22871;SDS011;11603;44.910;8.630;2023-04-12T18:58:38;15.25;;;7.47;;
22871;SDS011;11603;44.910;8.630;2023-04-12T19:01:06;10.43;;;6.72;;
22871;SDS011;11603;44.910;8.630;2023-04-12T19:03:33;11.23;;;7.05;;
22871;SDS011;11603;44.910;8.630;2023-04-12T19:05:59;10.57;;;6.90;;
22871;SDS011;11603;44.910;8.630;2023-04-12T19:08:27;14.00;;;7.80;;
22871;SDS011;11603;44.910;8.630;2023-04-12T19:10:54;15.02;;;7.30;;
22871;SDS011;11603;44.910;8.630;2023-04-12T19:13:20;11.23;;;7.47;;
22871;SDS011;11603;44.910;8.630;2023-04-12T19:15:46;11.45;;;7.50;;
22871;SDS011;11603;44.910;8.630;2023-04-12T19:18:11;13.30;;;7.80;;
22871;SDS011;11603;44.910;8.630;2023-04-12T19:20:37;14.18;;;8.35;;
22871;SDS011;11603;44.910;8.630;2023-04-12T19:23:03;12.02;;;7.15;;
22871;SDS011;11603;44.910;8.630;2023-04-12T19:25:29;14.10;;;7.47;;
22871;SDS011;11603;44.910;8.630;2023-04-12T19:27:57;12.75;;;7.30;;
22871;SDS011;11603;44.910;8.630;2023-04-12T19:30:23;14.45;;;8.52;;
22871;SDS011;11603;44.910;8.630;2023-04-12T19:32:49;12.05;;;7.95;;
22871;SDS011;11603;44.910;8.630;2023-04-12T19:35:14;21.83;;;9.05;;
22871;SDS011;11603;44.910;8.630;2023-04-12T19:37:40;18.42;;;8.45;;
22871;SDS011;11603;44.910;8.630;2023-04-12T19:40:06;16.60;;;9.45;;
22871;SDS011;11603;44.910;8.630;2023-04-12T19:42:32;13.27;;;9.48;;
22871;SDS011;11603;44.910;8.630;2023-04-12T19:44:58;14.40;;;8.85;;
22871;SDS011;11603;44.910;8.630;2023-04-12T19:47:26;12.93;;;9.32;;
22871;SDS011;11603;44.910;8.630;2023-04-12T19:49:53;15.15;;;9.15;;
22871;SDS011;11603;44.910;8.630;2023-04-12T19:52:20;13.43;;;9.45;;
22871;SDS011;11603;44.910;8.630;2023-04-12T19:54:46;12.40;;;9.27;;
22871;SDS011;11603;44.910;8.630;2023-04-12T19:57:11;16.85;;;8.65;;
22871;SDS011;11603;44.910;8.630;2023-04-12T19:59:41;14.65;;;9.35;;
22871;SDS011;11603;44.910;8.630;2023-04-12T20:02:07;14.18;;;9.30;;
22871;SDS011;11603;44.910;8.630;2023-04-12T20:04:32;14.27;;;9.30;;
22871;SDS011;11603;44.910;8.630;2023-04-12T20:06:58;17.15;;;10.02;;
22871;SDS011;11603;44.910;8.630;2023-04-12T20:09:27;14.40;;;10.98;;
22871;SDS011;11603;44.910;8.630;2023-04-12T20:11:58;22.95;;;13.05;;
22871;SDS011;11603;44.910;8.630;2023-04-12T20:14:25;17.90;;;13.40;;
22871;SDS011;11603;44.910;8.630;2023-04-12T20:16:51;20.48;;;14.43;;
22871;SDS011;11603;44.910;8.630;2023-04-12T20:19:19;24.65;;;15.40;;
22871;SDS011;11603;44.910;8.630;2023-04-12T20:21:48;26.90;;;17.70;;
22871;SDS011;11603;44.910;8.630;2023-04-12T20:24:14;26.00;;;18.92;;
22871;SDS011;11603;44.910;8.630;2023-04-12T20:26:39;28.17;;;19.05;;
22871;SDS011;11603;44.910;8.630;2023-04-12T20:29:16;25.58;;;20.20;;
22871;SDS011;11603;44.910;8.630;2023-04-12T20:31:42;25.70;;;19.70;;
22871;SDS011;11603;44.910;8.630;2023-04-12T20:34:11;33.65;;;19.45;;
22871;SDS011;11603;44.910;8.630;2023-04-12T20:36:36;27.52;;;19.88;;
22871;SDS011;11603;44.910;8.630;2023-04-12T20:39:02;30.40;;;19.63;;
22871;SDS011;11603;44.910;8.630;2023-04-12T20:41:29;29.02;;;20.70;;
22871;SDS011;11603;44.910;8.630;2023-04-12T20:43:55;29.02;;;20.48;;
22871;SDS011;11603;44.910;8.630;2023-04-12T20:46:21;28.05;;;20.08;;
22871;SDS011;11603;44.910;8.630;2023-04-12T20:48:49;31.02;;;21.05;;
22871;SDS011;11603;44.910;8.630;2023-04-12T20:51:17;31.60;;;20.35;;
22871;SDS011;11603;44.910;8.630;2023-04-12T20:53:45;29.17;;;21.15;;
22871;SDS011;11603;44.910;8.630;2023-04-12T20:56:14;28.02;;;20.85;;
22871;SDS011;11603;44.910;8.630;2023-04-12T20:58:50;24.42;;;19.17;;
22871;SDS011;11603;44.910;8.630;2023-04-12T21:01:17;24.33;;;17.98;;
22871;SDS011;11603;44.910;8.630;2023-04-12T21:03:42;25.33;;;18.98;;
22871;SDS011;11603;44.910;8.630;2023-04-12T21:06:08;25.70;;;16.33;;
22871;SDS011;11603;44.910;8.630;2023-04-12T21:08:37;23.70;;;17.23;;
22871;SDS011;11603;44.910;8.630;2023-04-12T21:11:03;26.08;;;17.63;;
22871;SDS011;11603;44.910;8.630;2023-04-12T21:13:29;23.42;;;16.75;;
22871;SDS011;11603;44.910;8.630;2023-04-12T21:15:55;21.95;;;17.15;;
22871;SDS011;11603;44.910;8.630;2023-04-12T21:18:21;25.35;;;17.15;;
22871;SDS011;11603;44.910;8.630;2023-04-12T21:20:47;21.63;;;15.77;;
22871;SDS011;11603;44.910;8.630;2023-04-12T21:23:14;24.92;;;16.83;;
22871;SDS011;11603;44.910;8.630;2023-04-12T21:25:45;25.27;;;17.02;;
22871;SDS011;11603;44.910;8.630;2023-04-12T21:28:14;23.00;;;16.30;;
22871;SDS011;11603;44.910;8.630;2023-04-12T21:30:41;27.70;;;17.55;;
22871;SDS011;11603;44.910;8.630;2023-04-12T21:33:08;23.08;;;16.77;;
22871;SDS011;11603;44.910;8.630;2023-04-12T21:35:53;19.13;;;15.75;;
22871;SDS011;11603;44.910;8.630;2023-04-12T21:38:20;22.65;;;15.23;;
22871;SDS011;11603;44.910;8.630;2023-04-12T21:40:46;18.90;;;15.77;;
22871;SDS011;11603;44.910;8.630;2023-04-12T21:43:12;24.58;;;15.98;;
22871;SDS011;11603;44.910;8.630;2023-04-12T21:45:38;22.35;;;15.57;;
22871;SDS011;11603;44.910;8.630;2023-04-12T21:48:03;21.73;;;15.90;;
22871;SDS011;11603;44.910;8.630;2023-04-12T21:50:29;19.83;;;15.68;;
22871;SDS011;11603;44.910;8.630;2023-04-12T21:52:57;22.70;;;15.77;;
22871;SDS011;11603;44.910;8.630;2023-04-12T21:55:25;21.33;;;15.05;;
22871;SDS011;11603;44.910;8.630;2023-04-12T21:57:52;24.98;;;16.33;;
22871;SDS011;11603;44.910;8.630;2023-04-12T22:00:18;19.65;;;15.02;;
22871;SDS011;11603;44.910;8.630;2023-04-12T22:02:43;24.38;;;14.90;;
22871;SDS011;11603;44.910;8.630;2023-04-12T22:05:09;17.65;;;14.45;;
22871;SDS011;11603;44.910;8.630;2023-04-12T22:07:35;20.08;;;13.88;;
22871;SDS011;11603;44.910;8.630;2023-04-12T22:10:05;19.55;;;14.00;;
22871;SDS011;11603;44.910;8.630;2023-04-12T22:12:36;19.25;;;14.07;;
22871;SDS011;11603;44.910;8.630;2023-04-12T22:15:02;21.65;;;14.38;;
22871;SDS011;11603;44.910;8.630;2023-04-12T22:17:29;20.90;;;14.77;;
22871;SDS011;11603;44.910;8.630;2023-04-12T22:19:55;18.70;;;14.98;;
22871;SDS011;11603;44.910;8.630;2023-04-12T22:22:24;20.92;;;15.30;;
22871;SDS011;11603;44.910;8.630;2023-04-12T22:24:53;20.02;;;16.02;;
22871;SDS011;11603;44.910;8.630;2023-04-12T22:27:19;27.15;;;16.88;;
22871;SDS011;11603;44.910;8.630;2023-04-12T22:29:45;21.83;;;16.38;;
22871;SDS011;11603;44.910;8.630;2023-04-12T22:32:18;23.23;;;19.08;;
22871;SDS011;11603;44.910;8.630;2023-04-12T22:34:44;28.05;;;19.48;;
22871;SDS011;11603;44.910;8.630;2023-04-12T22:37:10;25.58;;;19.25;;
22871;SDS011;11603;44.910;8.630;2023-04-12T22:39:36;27.27;;;21.05;;
22871;SDS011;11603;44.910;8.630;2023-04-12T22:42:01;28.25;;;19.95;;
22871;SDS011;11603;44.910;8.630;2023-04-12T22:44:28;29.50;;;20.58;;
22871;SDS011;11603;44.910;8.630;2023-04-12T22:46:54;32.15;;;23.58;;
22871;SDS011;11603;44.910;8.630;2023-04-12T22:49:24;36.75;;;27.15;;
22871;SDS011;11603;44.910;8.630;2023-04-12T22:51:52;36.63;;;27.13;;
22871;SDS011;11603;44.910;8.630;2023-04-12T22:54:18;37.97;;;28.77;;
22871;SDS011;11603;44.910;8.630;2023-04-12T22:56:50;40.13;;;30.15;;
22871;SDS011;11603;44.910;8.630;2023-04-12T22:59:17;38.22;;;30.13;;
22871;SDS011;11603;44.910;8.630;2023-04-12T23:01:47;40.75;;;29.88;;
22871;SDS011;11603;44.910;8.630;2023-04-12T23:04:13;38.08;;;30.20;;
22871;SDS011;11603;44.910;8.630;2023-04-12T23:06:42;40.28;;;31.48;;
22871;SDS011;11603;44.910;8.630;2023-04-12T23:09:09;40.05;;;30.52;;
22871;SDS011;11603;44.910;8.630;2023-04-12T23:11:36;41.63;;;30.52;;
22871;SDS011;11603;44.910;8.630;2023-04-12T23:14:24;43.30;;;31.25;;
22871;SDS011;11603;44.910;8.630;2023-04-12T23:16:51;39.67;;;29.00;;
22871;SDS011;11603;44.910;8.630;2023-04-12T23:19:17;38.75;;;29.23;;
22871;SDS011;11603;44.910;8.630;2023-04-12T23:21:43;36.40;;;27.27;;